Terminal Aerodrome Forecast
Issued by NWS Missoula, MT

Home | Current Version | Previous Version | Text Only | Print | Product List | Glossary On
Versions: 1 2 3 4 5 6 7 8 9 10 11 12 13 14 15
000
FTUS45 KMSO 020528
TAFBTM
TAF
KBTM 020528Z 0206/0306 00000KT P6SM VCSH SCT150
     FM020800 21008G15KT P6SM -SHRA SCT050 OVC070
     FM021800 VRB07G25KT P6SM VCTS BKN050CB
     FM030100 32010KT P6SM VCSH BKN080=

USA.gov is the U.S. government's official web portal to all federal, state and local government web resources and services.